createdAt,value
2023-05-04T00:00:59.496Z,5.46
2023-05-04T00:04:02.669Z,5.44
2023-05-04T00:07:05.642Z,5.42
2023-05-04T00:10:09.484Z,5.40
2023-05-04T00:13:12.329Z,5.40
2023-05-04T00:16:15.170Z,5.37
2023-05-04T00:19:19.566Z,5.38
2023-05-04T00:22:22.613Z,5.36
2023-05-04T00:25:25.415Z,5.37
2023-05-04T00:28:28.157Z,5.37
2023-05-04T00:31:31.031Z,5.33
2023-05-04T00:34:34.319Z,5.25
2023-05-04T00:37:37.253Z,5.17
2023-05-04T00:40:40.539Z,5.15
2023-05-04T00:43:45.142Z,5.18
2023-05-04T00:46:48.015Z,5.20
2023-05-04T00:49:52.224Z,5.17
2023-05-04T00:52:58.479Z,5.14
2023-05-04T00:56:03.356Z,5.07
2023-05-04T00:59:07.008Z,4.95
2023-05-04T01:02:10.446Z,4.85
2023-05-04T01:05:13.946Z,4.77
2023-05-04T01:08:21.721Z,4.75
2023-05-04T01:11:33.790Z,4.76
2023-05-04T01:14:39.098Z,4.76
2023-05-04T01:17:41.908Z,4.72
2023-05-04T01:20:44.651Z,4.68
2023-05-04T01:23:47.502Z,4.66
2023-05-04T01:26:55.718Z,4.67
2023-05-04T01:30:08.942Z,4.72
2023-05-04T01:33:12.692Z,4.76
2023-05-04T01:36:15.686Z,4.80
2023-05-04T01:39:18.581Z,4.80
2023-05-04T01:42:21.500Z,4.78
2023-05-04T01:45:24.297Z,4.79
2023-05-04T01:48:28.426Z,4.78
2023-05-04T01:51:31.307Z,4.74
2023-05-04T01:54:34.040Z,4.73
2023-05-04T01:57:36.843Z,4.68
2023-05-04T02:00:39.597Z,4.65
2023-05-04T02:03:42.975Z,4.60
2023-05-04T02:06:46.895Z,4.53
2023-05-04T02:09:49.678Z,4.52
2023-05-04T02:12:52.722Z,4.49
2023-05-04T02:15:55.515Z,4.49
2023-05-04T02:18:58.304Z,4.45
2023-05-04T02:22:01.047Z,4.43
2023-05-04T02:25:04.073Z,4.43
2023-05-04T02:28:07.309Z,4.40
2023-05-04T02:31:10.153Z,4.40
2023-05-04T02:34:13.116Z,4.40
2023-05-04T02:37:22.785Z,4.41
2023-05-04T02:40:25.651Z,4.39
2023-05-04T02:43:28.428Z,4.39
2023-05-04T02:46:32.455Z,4.37
2023-05-04T02:49:35.734Z,4.35
2023-05-04T02:52:38.795Z,4.31
2023-05-04T02:55:41.933Z,4.32
2023-05-04T02:58:44.771Z,4.31
2023-05-04T03:01:47.851Z,4.29
2023-05-04T03:04:51.013Z,4.29
2023-05-04T03:07:53.819Z,4.29
2023-05-04T03:10:56.594Z,4.31
2023-05-04T03:13:59.373Z,4.30
2023-05-04T03:17:02.466Z,4.29
2023-05-04T03:20:07.363Z,4.28
2023-05-04T03:23:10.515Z,4.31
2023-05-04T03:26:13.490Z,4.35
2023-05-04T03:29:16.668Z,4.37
2023-05-04T03:32:19.635Z,4.49
2023-05-04T03:35:24.887Z,4.61
2023-05-04T03:38:29.470Z,4.73
2023-05-04T03:41:32.294Z,4.88
2023-05-04T03:44:35.459Z,5.10
2023-05-04T03:47:38.343Z,5.37
2023-05-04T03:50:41.215Z,5.65
2023-05-04T03:53:45.072Z,5.92
2023-05-04T03:56:50.494Z,6.22
2023-05-04T03:59:54.526Z,6.51
2023-05-04T04:02:59.488Z,6.78
2023-05-04T04:06:05.554Z,7.08
2023-05-04T04:09:08.360Z,7.37
2023-05-04T04:12:11.399Z,7.66
2023-05-04T04:15:14.192Z,7.93
2023-05-04T04:18:16.988Z,8.20
2023-05-04T04:21:19.878Z,8.47
2023-05-04T04:24:22.628Z,8.70
2023-05-04T04:27:25.395Z,8.94
2023-05-04T04:30:28.249Z,9.26
2023-05-04T04:33:30.970Z,9.59
2023-05-04T04:36:34.024Z,9.91
2023-05-04T04:39:37.056Z,10.21
2023-05-04T04:42:40.005Z,10.44
2023-05-04T04:45:42.997Z,10.72
2023-05-04T04:48:45.701Z,11.04
2023-05-04T04:51:49.062Z,11.35
2023-05-04T04:54:52.133Z,11.56
2023-05-04T04:57:55.726Z,11.78
2023-05-04T05:00:58.715Z,12.03
2023-05-04T05:04:01.577Z,12.34
2023-05-04T05:07:04.308Z,12.64
2023-05-04T05:10:08.704Z,12.95
2023-05-04T05:13:11.789Z,13.25
2023-05-04T05:16:14.667Z,13.57
2023-05-04T05:19:17.515Z,13.87
2023-05-04T05:22:20.260Z,14.13
2023-05-04T05:25:23.447Z,14.39
2023-05-04T05:28:26.304Z,14.64
2023-05-04T05:31:29.192Z,14.84
2023-05-04T05:34:33.072Z,15.01
2023-05-04T05:37:35.867Z,15.20
2023-05-04T05:40:38.632Z,15.35
2023-05-04T05:43:41.731Z,15.54
2023-05-04T05:46:44.565Z,15.73
2023-05-04T05:49:47.518Z,15.93
2023-05-04T05:52:50.842Z,16.14
2023-05-04T05:55:53.545Z,16.33
2023-05-04T05:58:56.571Z,16.51
2023-05-04T06:02:00.207Z,16.69
2023-05-04T06:05:03.637Z,16.85
2023-05-04T06:08:06.630Z,17.03
2023-05-04T06:11:09.368Z,17.14
2023-05-04T06:14:12.113Z,17.29
2023-05-04T06:17:15.164Z,17.50
2023-05-04T06:20:18.294Z,17.67
2023-05-04T06:23:21.274Z,17.68
2023-05-04T06:26:24.142Z,17.78
2023-05-04T06:29:26.857Z,17.93
2023-05-04T06:32:29.780Z,17.98
2023-05-04T06:35:32.741Z,17.95
2023-05-04T06:38:37.783Z,18.13
2023-05-04T06:41:41.981Z,18.36
2023-05-04T06:44:44.967Z,18.54
2023-05-04T06:47:48.086Z,18.77
2023-05-04T06:50:51.067Z,18.96
2023-05-04T06:53:53.760Z,19.07
2023-05-04T06:56:56.714Z,19.27
2023-05-04T06:59:59.565Z,19.16
2023-05-04T07:03:02.502Z,19.06
2023-05-04T07:06:05.432Z,18.93
2023-05-04T07:09:08.501Z,18.93
2023-05-04T07:12:11.256Z,18.94
2023-05-04T07:15:14.243Z,19.03
2023-05-04T07:18:17.266Z,19.12
2023-05-04T07:21:27.464Z,19.19
2023-05-04T07:24:31.628Z,19.29
2023-05-04T07:27:37.169Z,19.48
2023-05-04T07:30:39.912Z,19.13
2023-05-04T07:33:43.458Z,19.00
2023-05-04T07:36:46.723Z,19.08
2023-05-04T07:39:49.584Z,18.62
2023-05-04T07:42:52.405Z,18.39
2023-05-04T07:45:55.171Z,18.40
2023-05-04T07:48:58.261Z,18.64
2023-05-04T07:52:01.016Z,18.87
2023-05-04T07:55:04.316Z,18.88
2023-05-04T07:58:07.212Z,18.52
2023-05-04T08:01:09.935Z,18.54
2023-05-04T08:04:12.733Z,18.72
2023-05-04T08:07:17.149Z,18.58
2023-05-04T08:10:20.767Z,18.56
2023-05-04T08:13:23.528Z,18.48
2023-05-04T08:16:26.827Z,18.60
2023-05-04T08:19:29.548Z,18.81
2023-05-04T08:22:32.689Z,18.91
2023-05-04T08:25:35.395Z,18.59
2023-05-04T08:28:40.767Z,18.49
2023-05-04T08:31:43.617Z,18.64
2023-05-04T08:34:46.426Z,18.79
2023-05-04T08:37:49.421Z,18.90
2023-05-04T08:40:52.628Z,19.04
2023-05-04T08:43:55.562Z,19.15
2023-05-04T08:46:58.438Z,19.40
2023-05-04T08:50:01.809Z,19.60
2023-05-04T08:53:11.381Z,19.73
2023-05-04T08:56:16.387Z,19.83
2023-05-04T08:59:22.466Z,19.93
2023-05-04T09:02:26.372Z,19.96
2023-05-04T09:05:30.339Z,19.96
2023-05-04T09:08:33.305Z,19.53
2023-05-04T09:11:36.377Z,19.47
2023-05-04T09:20:59.776Z,18.88
2023-05-04T09:24:03.355Z,18.86
2023-05-04T09:27:10.559Z,18.99
2023-05-04T09:30:13.586Z,18.88
2023-05-04T09:33:16.702Z,18.66
2023-05-04T09:36:21.289Z,18.47
2023-05-04T09:39:24.168Z,18.20
2023-05-04T09:42:27.074Z,18.31
2023-05-04T09:45:41.242Z,18.65
2023-05-04T09:48:52.378Z,18.75
2023-05-04T09:51:57.219Z,18.43
2023-05-04T09:55:01.065Z,18.49
2023-05-04T09:58:05.582Z,18.85
2023-05-04T10:01:09.428Z,19.10
2023-05-04T10:04:13.099Z,19.24
2023-05-04T10:07:16.616Z,19.34
2023-05-04T10:10:19.457Z,19.48
2023-05-04T10:13:23.346Z,19.33
2023-05-04T10:16:41.898Z,19.39
2023-05-04T10:20:12.178Z,19.69
2023-05-04T10:23:52.479Z,20.36
2023-05-04T10:27:03.115Z,20.63
2023-05-04T10:30:07.729Z,20.66
2023-05-04T10:33:11.408Z,20.67
2023-05-04T10:36:14.444Z,20.56
2023-05-04T10:39:20.277Z,20.50
2023-05-04T10:42:23.117Z,20.53
2023-05-04T10:45:40.021Z,20.54
2023-05-04T10:48:42.862Z,20.56
2023-05-04T10:51:49.416Z,20.64
2023-05-04T10:55:05.470Z,20.58
2023-05-04T10:58:11.003Z,20.46
2023-05-04T11:01:14.101Z,20.47
2023-05-04T11:04:23.311Z,20.55
2023-05-04T11:07:38.852Z,20.64
2023-05-04T11:10:41.676Z,20.68
2023-05-04T11:13:47.305Z,20.61
2023-05-04T11:16:50.124Z,20.31
2023-05-04T11:19:53.205Z,19.78
2023-05-04T11:22:56.424Z,19.54
2023-05-04T11:26:04.767Z,19.46
2023-05-04T11:29:14.196Z,19.57
2023-05-04T11:32:16.994Z,19.81
2023-05-04T11:35:23.820Z,20.04
2023-05-04T11:38:26.625Z,19.94
2023-05-04T11:41:29.973Z,19.94
2023-05-04T11:44:33.045Z,19.89
2023-05-04T11:47:37.544Z,19.93
2023-05-04T11:50:40.869Z,20.01
2023-05-04T11:53:43.721Z,20.24
2023-05-04T11:56:46.442Z,20.39
2023-05-04T11:59:49.820Z,20.46
2023-05-04T12:02:56.242Z,20.47
2023-05-04T12:06:00.219Z,20.60
2023-05-04T12:09:05.809Z,20.66
2023-05-04T12:12:08.685Z,20.73
2023-05-04T12:15:11.974Z,20.85
2023-05-04T12:18:22.761Z,20.82
2023-05-04T12:21:25.502Z,20.78
2023-05-04T12:24:28.317Z,20.83
2023-05-04T12:27:31.846Z,20.83
2023-05-04T12:30:34.701Z,20.86
2023-05-04T12:33:37.673Z,20.74
2023-05-04T12:36:40.931Z,20.62
2023-05-04T12:39:43.685Z,20.46
2023-05-04T12:42:46.483Z,20.47
2023-05-04T12:45:51.777Z,20.33
2023-05-04T12:48:54.621Z,20.23
2023-05-04T12:51:58.365Z,20.22
2023-05-04T12:55:01.874Z,20.16
2023-05-04T12:58:04.922Z,20.28
2023-05-04T13:01:08.155Z,20.49
2023-05-04T13:04:11.063Z,20.70
2023-05-04T13:07:14.966Z,20.61
2023-05-04T13:10:18.615Z,20.25
2023-05-04T13:13:26.253Z,19.87
2023-05-04T13:16:30.817Z,19.52
2023-05-04T13:19:33.736Z,19.39
2023-05-04T13:22:36.869Z,19.19
2023-05-04T13:25:39.825Z,19.01
2023-05-04T13:28:42.818Z,18.66
2023-05-04T13:31:45.666Z,18.56
2023-05-04T13:34:48.488Z,18.63
2023-05-04T13:37:51.705Z,18.66
2023-05-04T13:40:55.711Z,18.55
2023-05-04T13:43:58.713Z,18.58
2023-05-04T13:47:02.421Z,18.67
2023-05-04T13:50:06.605Z,18.80
2023-05-04T13:53:11.338Z,18.90
2023-05-04T13:56:14.126Z,18.95
2023-05-04T13:59:17.049Z,18.85
2023-05-04T14:02:20.289Z,18.78
2023-05-04T14:05:23.256Z,18.71
2023-05-04T14:08:26.984Z,18.66
2023-05-04T14:11:29.825Z,18.66
2023-05-04T14:14:32.731Z,18.62
2023-05-04T14:17:35.555Z,18.62
2023-05-04T14:20:38.337Z,18.61
2023-05-04T14:23:41.059Z,18.61
2023-05-04T14:26:44.028Z,18.61
2023-05-04T14:29:47.835Z,18.59
2023-05-04T14:32:55.404Z,18.48
2023-05-04T14:35:58.258Z,18.22
2023-05-04T14:39:02.938Z,18.09
2023-05-04T14:42:05.804Z,18.07
2023-05-04T14:45:09.524Z,17.94
2023-05-04T14:48:12.579Z,17.90
2023-05-04T14:51:22.777Z,17.91
2023-05-04T14:54:25.513Z,17.88
2023-05-04T14:57:28.344Z,17.86
2023-05-04T15:00:31.088Z,17.87
2023-05-04T15:03:34.041Z,17.81
2023-05-04T15:06:36.834Z,17.71
2023-05-04T15:09:39.917Z,17.65
2023-05-04T15:12:43.118Z,17.63
2023-05-04T15:15:46.001Z,17.62
2023-05-04T15:18:48.773Z,17.63
2023-05-04T15:21:51.947Z,17.60
2023-05-04T15:24:55.640Z,17.52
2023-05-04T15:27:58.361Z,17.32
2023-05-04T15:31:02.627Z,17.16
2023-05-04T15:34:05.677Z,17.09
2023-05-04T15:37:08.436Z,16.97
2023-05-04T15:40:12.785Z,16.96
2023-05-04T15:43:15.625Z,16.93
2023-05-04T15:46:18.488Z,16.90
2023-05-04T15:49:21.312Z,16.79
2023-05-04T15:52:24.105Z,16.66
2023-05-04T15:55:27.034Z,16.59
2023-05-04T15:58:29.907Z,16.48
2023-05-04T16:01:33.409Z,16.33
2023-05-04T16:04:36.434Z,16.18
2023-05-04T16:07:39.341Z,16.11
2023-05-04T16:10:42.061Z,16.10
2023-05-04T16:13:45.027Z,16.10
2023-05-04T16:16:47.953Z,16.13
2023-05-04T16:19:50.890Z,16.16
2023-05-04T16:22:53.778Z,16.17
2023-05-04T16:25:56.628Z,16.08
2023-05-04T16:28:59.420Z,15.96
2023-05-04T16:32:03.102Z,15.89
2023-05-04T16:35:06.478Z,15.84
2023-05-04T16:38:12.220Z,15.82
2023-05-04T16:41:14.955Z,15.76
2023-05-04T16:44:17.669Z,15.70
2023-05-04T16:47:20.676Z,15.64
2023-05-04T16:50:23.396Z,15.63
2023-05-04T16:53:26.474Z,15.61
2023-05-04T16:56:29.195Z,15.56
2023-05-04T16:59:31.933Z,15.51
2023-05-04T17:02:38.119Z,15.47
2023-05-04T17:05:41.174Z,15.43
2023-05-04T17:08:44.646Z,15.43
2023-05-04T17:11:47.510Z,15.36
2023-05-04T17:14:50.388Z,15.28
2023-05-04T17:17:55.842Z,15.17
2023-05-04T17:20:58.652Z,15.12
2023-05-04T17:24:01.513Z,15.11
2023-05-04T17:27:04.676Z,15.04
2023-05-04T17:30:08.240Z,15.01
2023-05-04T17:33:11.650Z,14.95
2023-05-04T17:36:14.567Z,14.92
2023-05-04T17:39:18.817Z,14.91
2023-05-04T17:42:21.695Z,14.87
2023-05-04T17:45:24.470Z,14.86
2023-05-04T17:48:28.345Z,14.83
2023-05-04T17:51:31.971Z,14.79
2023-05-04T17:54:34.723Z,14.71
2023-05-04T17:57:37.536Z,14.61
2023-05-04T18:00:40.479Z,14.51
2023-05-04T18:03:43.659Z,14.46
2023-05-04T18:06:47.827Z,14.44
2023-05-04T18:09:52.250Z,14.40
2023-05-04T18:12:56.650Z,14.34
2023-05-04T18:15:59.560Z,14.35
2023-05-04T18:19:02.508Z,14.25
2023-05-04T18:22:05.451Z,14.14
2023-05-04T18:25:09.313Z,14.02
2023-05-04T18:28:12.079Z,13.91
2023-05-04T18:31:15.169Z,13.80
2023-05-04T18:34:18.185Z,13.73
2023-05-04T18:37:21.723Z,13.66
2023-05-04T18:40:24.695Z,13.55
2023-05-04T18:43:27.567Z,13.49
2023-05-04T18:46:33.380Z,13.49
2023-05-04T18:49:36.099Z,13.43
2023-05-04T18:52:38.940Z,13.35
2023-05-04T18:55:41.667Z,13.30
2023-05-04T18:58:44.573Z,13.21
2023-05-04T19:01:47.375Z,13.12
2023-05-04T19:04:50.602Z,13.02
2023-05-04T19:07:53.360Z,12.91
2023-05-04T19:11:03.577Z,12.80
2023-05-04T19:14:06.702Z,12.73
2023-05-04T19:17:09.519Z,12.70
2023-05-04T19:20:12.350Z,12.65
2023-05-04T19:23:15.095Z,12.65
2023-05-04T19:26:17.891Z,12.64
2023-05-04T19:29:20.781Z,12.60
2023-05-04T19:32:25.011Z,12.56
2023-05-04T19:35:28.014Z,12.54
2023-05-04T19:38:30.759Z,12.50
2023-05-04T19:41:33.542Z,12.46
2023-05-04T19:44:36.332Z,12.42
2023-05-04T19:47:39.182Z,12.39
2023-05-04T19:50:43.326Z,12.37
2023-05-04T19:53:46.118Z,12.37
2023-05-04T19:56:49.019Z,12.31
2023-05-04T19:59:51.821Z,12.26
2023-05-04T20:02:54.888Z,12.22
2023-05-04T20:05:57.926Z,12.17
2023-05-04T20:09:00.664Z,12.17
2023-05-04T20:12:04.575Z,12.24
2023-05-04T20:15:07.926Z,12.25
2023-05-04T20:18:10.733Z,12.24
2023-05-04T20:21:14.363Z,12.21
2023-05-04T20:24:18.450Z,12.16
2023-05-04T20:27:22.202Z,12.10
2023-05-04T20:30:28.177Z,12.03
2023-05-04T20:33:30.932Z,11.96
2023-05-04T20:36:34.201Z,11.88
2023-05-04T20:39:37.051Z,11.81
2023-05-04T20:42:39.764Z,11.73
2023-05-04T20:45:42.657Z,11.68
2023-05-04T20:48:45.768Z,11.62
2023-05-04T20:51:48.572Z,11.54
2023-05-04T20:54:51.790Z,11.48
2023-05-04T20:57:54.490Z,11.43
2023-05-04T21:01:03.340Z,11.37
2023-05-04T21:04:06.084Z,11.33
2023-05-04T21:07:09.156Z,11.30
2023-05-04T21:10:12.281Z,11.21
2023-05-04T21:13:15.021Z,11.14
2023-05-04T21:16:18.096Z,11.12
2023-05-04T21:19:20.889Z,11.08
2023-05-04T21:22:23.642Z,11.05
2023-05-04T21:25:26.432Z,11.00
2023-05-04T21:28:30.412Z,10.94
2023-05-04T21:31:33.475Z,10.89
2023-05-04T21:34:36.552Z,10.85
2023-05-04T21:37:39.338Z,10.79
2023-05-04T21:40:42.317Z,10.71
2023-05-04T21:43:45.068Z,10.66
2023-05-04T21:46:47.826Z,10.61
2023-05-04T21:49:54.197Z,10.59
2023-05-04T21:52:56.940Z,10.56
2023-05-04T21:56:08.394Z,10.52
2023-05-04T21:59:11.222Z,10.48
2023-05-04T22:02:13.921Z,10.46
2023-05-04T22:05:18.104Z,10.42
2023-05-04T22:08:22.096Z,10.38
2023-05-04T22:11:25.373Z,10.36
2023-05-04T22:14:28.609Z,10.36
2023-05-04T22:17:31.517Z,10.35
2023-05-04T22:20:35.091Z,10.30
2023-05-04T22:23:37.982Z,10.23
2023-05-04T22:26:40.938Z,10.17
2023-05-04T22:29:43.958Z,10.12
2023-05-04T22:32:47.133Z,10.03
2023-05-04T22:35:50.028Z,9.98
2023-05-04T22:38:52.739Z,9.91
2023-05-04T22:41:55.630Z,9.83
2023-05-04T22:44:58.632Z,9.72
2023-05-04T22:48:01.391Z,9.68
2023-05-04T22:51:04.514Z,9.61
2023-05-04T22:54:07.244Z,9.55
2023-05-04T22:57:10.072Z,9.50
2023-05-04T23:00:13.584Z,9.49
2023-05-04T23:03:16.396Z,9.49
2023-05-04T23:06:19.191Z,9.49
2023-05-04T23:09:22.387Z,9.46
2023-05-04T23:12:26.949Z,9.43
2023-05-04T23:15:29.798Z,9.43
2023-05-04T23:18:33.156Z,9.43
2023-05-04T23:21:36.181Z,9.46
2023-05-04T23:24:39.038Z,9.49
2023-05-04T23:27:41.825Z,9.50
2023-05-04T23:30:44.574Z,9.49
2023-05-04T23:33:47.400Z,9.46
2023-05-04T23:36:50.181Z,9.42
2023-05-04T23:40:12.255Z,9.38
2023-05-04T23:43:15.337Z,9.33
2023-05-04T23:46:18.222Z,9.27
2023-05-04T23:49:20.998Z,9.27
2023-05-04T23:52:23.856Z,9.23
2023-05-04T23:55:27.065Z,9.17
2023-05-04T23:58:31.385Z,9.13
